Aviation Digital Data Service (ADDS)

Output produced by METARs form (0050 UTC 24 May 2022)
found at http://www.aviationweather.gov/metar/data/
 
KYIP 232320Z 2400/2424 07008KT P6SM FEW045 SCT060 BKN200 
     FM240200 02005KT P6SM BKN250 
     FM241600 06008KT P6SM FEW060 SCT250
       
KYKM 232330Z 2400/2424 35010G20KT P6SM SCT060 BKN110 
     FM240500 31010KT P6SM BKN250 
     FM241400 29006KT P6SM BKN150 
     FM241800 VRB06KT P6SM OVC120 
     FM242300 VRB06KT P6SM OVC080
       
KYNG 232320Z 2400/2424 02008KT P6SM BKN250 
     FM241100 06006KT P6SM SCT250 
     FM241700 10006KT P6SM BKN035